sensor_id;sensor_type;location;lat;lon;timestamp;temperature;humidity
44166;DHT22;30476;53.468;9.826;2022-07-22T00:02:22;21.30;99.90
44166;DHT22;30476;53.468;9.826;2022-07-22T00:04:48;21.30;99.90
44166;DHT22;30476;53.468;9.826;2022-07-22T00:07:14;21.30;99.90
44166;DHT22;30476;53.468;9.826;2022-07-22T00:09:40;21.30;99.90
44166;DHT22;30476;53.468;9.826;2022-07-22T00:12:06;21.30;99.90
44166;DHT22;30476;53.468;9.826;2022-07-22T00:14:32;21.30;99.90
44166;DHT22;30476;53.468;9.826;2022-07-22T00:16:58;21.30;99.90
44166;DHT22;30476;53.468;9.826;2022-07-22T00:19:24;21.20;99.90
44166;DHT22;30476;53.468;9.826;2022-07-22T00:21:51;21.10;99.90
44166;DHT22;30476;53.468;9.826;2022-07-22T00:24:17;21.10;99.90
44166;DHT22;30476;53.468;9.826;2022-07-22T00:26:44;21.00;99.90
44166;DHT22;30476;53.468;9.826;2022-07-22T00:29:10;20.90;99.90
44166;DHT22;30476;53.468;9.826;2022-07-22T00:31:36;20.90;99.90
44166;DHT22;30476;53.468;9.826;2022-07-22T00:34:02;20.80;99.90
44166;DHT22;30476;53.468;9.826;2022-07-22T00:36:31;20.80;99.90
44166;DHT22;30476;53.468;9.826;2022-07-22T00:38:58;20.70;99.90
44166;DHT22;30476;53.468;9.826;2022-07-22T00:41:24;20.70;99.90
44166;DHT22;30476;53.468;9.826;2022-07-22T00:44:03;20.60;99.90
44166;DHT22;30476;53.468;9.826;2022-07-22T00:46:30;20.50;99.90
44166;DHT22;30476;53.468;9.826;2022-07-22T00:48:56;20.50;99.90
44166;DHT22;30476;53.468;9.826;2022-07-22T00:51:24;20.50;99.90
44166;DHT22;30476;53.468;9.826;2022-07-22T00:53:50;20.40;99.90
44166;DHT22;30476;53.468;9.826;2022-07-22T00:56:18;20.40;99.90
44166;DHT22;30476;53.468;9.826;2022-07-22T00:58:45;20.40;99.90
44166;DHT22;30476;53.468;9.826;2022-07-22T01:01:11;20.30;99.90
44166;DHT22;30476;53.468;9.826;2022-07-22T01:03:37;20.30;99.90
44166;DHT22;30476;53.468;9.826;2022-07-22T01:06:03;20.30;99.90
44166;DHT22;30476;53.468;9.826;2022-07-22T01:08:29;20.20;99.90
44166;DHT22;30476;53.468;9.826;2022-07-22T01:11:06;20.20;99.90
44166;DHT22;30476;53.468;9.826;2022-07-22T01:13:32;20.20;99.90
44166;DHT22;30476;53.468;9.826;2022-07-22T01:15:58;20.10;99.90
44166;DHT22;30476;53.468;9.826;2022-07-22T01:18:23;20.00;99.90
44166;DHT22;30476;53.468;9.826;2022-07-22T01:20:49;20.00;99.90
44166;DHT22;30476;53.468;9.826;2022-07-22T01:23:15;19.90;99.90
44166;DHT22;30476;53.468;9.826;2022-07-22T01:25:40;19.90;99.90
44166;DHT22;30476;53.468;9.826;2022-07-22T01:28:06;19.90;99.90
44166;DHT22;30476;53.468;9.826;2022-07-22T01:30:32;19.90;99.90
44166;DHT22;30476;53.468;9.826;2022-07-22T01:32:58;19.80;99.90
44166;DHT22;30476;53.468;9.826;2022-07-22T01:35:24;19.80;99.90
44166;DHT22;30476;53.468;9.826;2022-07-22T01:37:49;19.80;99.90
44166;DHT22;30476;53.468;9.826;2022-07-22T01:40:15;19.70;99.90
44166;DHT22;30476;53.468;9.826;2022-07-22T01:42:41;19.70;99.90
44166;DHT22;30476;53.468;9.826;2022-07-22T01:45:07;19.60;99.90
44166;DHT22;30476;53.468;9.826;2022-07-22T01:47:33;19.60;99.90
44166;DHT22;30476;53.468;9.826;2022-07-22T01:49:59;19.60;99.90
44166;DHT22;30476;53.468;9.826;2022-07-22T01:52:25;19.60;99.90
44166;DHT22;30476;53.468;9.826;2022-07-22T01:54:51;19.60;99.90
44166;DHT22;30476;53.468;9.826;2022-07-22T01:57:16;19.60;99.90
44166;DHT22;30476;53.468;9.826;2022-07-22T01:59:42;19.50;99.90
44166;DHT22;30476;53.468;9.826;2022-07-22T02:02:08;19.50;99.90
44166;DHT22;30476;53.468;9.826;2022-07-22T02:04:34;19.50;99.90
44166;DHT22;30476;53.468;9.826;2022-07-22T02:06:59;19.50;99.90
44166;DHT22;30476;53.468;9.826;2022-07-22T02:09:25;19.40;99.90
44166;DHT22;30476;53.468;9.826;2022-07-22T02:11:51;19.40;99.90
44166;DHT22;30476;53.468;9.826;2022-07-22T02:14:17;19.40;99.90
44166;DHT22;30476;53.468;9.826;2022-07-22T02:16:42;19.40;99.90
44166;DHT22;30476;53.468;9.826;2022-07-22T02:19:08;19.40;99.90
44166;DHT22;30476;53.468;9.826;2022-07-22T02:21:34;19.40;99.90
44166;DHT22;30476;53.468;9.826;2022-07-22T02:24:00;19.40;99.90
44166;DHT22;30476;53.468;9.826;2022-07-22T02:26:26;19.30;99.90
44166;DHT22;30476;53.468;9.826;2022-07-22T02:28:51;19.30;99.90
44166;DHT22;30476;53.468;9.826;2022-07-22T02:31:17;19.30;99.90
44166;DHT22;30476;53.468;9.826;2022-07-22T02:33:43;19.30;99.90
44166;DHT22;30476;53.468;9.826;2022-07-22T02:36:09;19.30;99.90
44166;DHT22;30476;53.468;9.826;2022-07-22T02:38:35;19.30;99.90
44166;DHT22;30476;53.468;9.826;2022-07-22T02:41:01;19.30;99.90
44166;DHT22;30476;53.468;9.826;2022-07-22T02:43:27;19.20;99.90
44166;DHT22;30476;53.468;9.826;2022-07-22T02:45:52;19.20;99.90
44166;DHT22;30476;53.468;9.826;2022-07-22T02:48:18;19.20;99.90
44166;DHT22;30476;53.468;9.826;2022-07-22T02:50:47;19.20;99.90
44166;DHT22;30476;53.468;9.826;2022-07-22T02:53:14;19.20;99.90
44166;DHT22;30476;53.468;9.826;2022-07-22T02:55:40;19.10;99.90
44166;DHT22;30476;53.468;9.826;2022-07-22T02:58:07;19.10;99.90
44166;DHT22;30476;53.468;9.826;2022-07-22T03:00:35;19.10;99.90
44166;DHT22;30476;53.468;9.826;2022-07-22T03:03:00;19.10;99.90
44166;DHT22;30476;53.468;9.826;2022-07-22T03:05:26;19.00;99.90
44166;DHT22;30476;53.468;9.826;2022-07-22T03:07:52;19.10;99.90
44166;DHT22;30476;53.468;9.826;2022-07-22T03:10:18;19.00;99.90
44166;DHT22;30476;53.468;9.826;2022-07-22T03:12:44;19.00;99.90
44166;DHT22;30476;53.468;9.826;2022-07-22T03:15:09;19.00;99.90
44166;DHT22;30476;53.468;9.826;2022-07-22T03:17:36;19.10;99.90
44166;DHT22;30476;53.468;9.826;2022-07-22T03:20:03;19.00;99.90
44166;DHT22;30476;53.468;9.826;2022-07-22T03:22:30;19.00;99.90
44166;DHT22;30476;53.468;9.826;2022-07-22T03:24:55;18.90;99.90
44166;DHT22;30476;53.468;9.826;2022-07-22T03:27:21;18.90;99.90
44166;DHT22;30476;53.468;9.826;2022-07-22T03:29:47;18.90;99.90
44166;DHT22;30476;53.468;9.826;2022-07-22T03:32:13;18.90;99.90
44166;DHT22;30476;53.468;9.826;2022-07-22T03:34:38;18.90;99.90
44166;DHT22;30476;53.468;9.826;2022-07-22T03:37:05;18.90;99.90
44166;DHT22;30476;53.468;9.826;2022-07-22T03:39:30;18.90;99.90
44166;DHT22;30476;53.468;9.826;2022-07-22T03:41:56;18.90;99.90
44166;DHT22;30476;53.468;9.826;2022-07-22T03:44:22;18.90;99.90
44166;DHT22;30476;53.468;9.826;2022-07-22T03:46:48;18.90;99.90
44166;DHT22;30476;53.468;9.826;2022-07-22T03:49:13;18.90;99.90
44166;DHT22;30476;53.468;9.826;2022-07-22T03:51:39;18.90;99.90
44166;DHT22;30476;53.468;9.826;2022-07-22T03:54:05;18.90;99.90
44166;DHT22;30476;53.468;9.826;2022-07-22T03:56:31;18.90;99.90
44166;DHT22;30476;53.468;9.826;2022-07-22T03:58:57;18.90;99.90
44166;DHT22;30476;53.468;9.826;2022-07-22T04:01:23;18.90;99.90
44166;DHT22;30476;53.468;9.826;2022-07-22T04:03:48;18.90;99.90
44166;DHT22;30476;53.468;9.826;2022-07-22T04:06:15;18.90;99.90
44166;DHT22;30476;53.468;9.826;2022-07-22T04:08:41;18.90;99.90
44166;DHT22;30476;53.468;9.826;2022-07-22T04:11:07;18.90;99.90
44166;DHT22;30476;53.468;9.826;2022-07-22T04:13:33;18.80;99.90
44166;DHT22;30476;53.468;9.826;2022-07-22T04:15:59;18.90;99.90
44166;DHT22;30476;53.468;9.826;2022-07-22T04:18:24;18.80;99.90
44166;DHT22;30476;53.468;9.826;2022-07-22T04:20:50;18.90;99.90
44166;DHT22;30476;53.468;9.826;2022-07-22T04:23:16;18.90;99.90
44166;DHT22;30476;53.468;9.826;2022-07-22T04:25:42;18.90;99.90
44166;DHT22;30476;53.468;9.826;2022-07-22T04:28:08;18.80;99.90
44166;DHT22;30476;53.468;9.826;2022-07-22T04:30:33;18.80;99.90
44166;DHT22;30476;53.468;9.826;2022-07-22T04:32:59;18.80;99.90
44166;DHT22;30476;53.468;9.826;2022-07-22T04:35:25;18.80;99.90
44166;DHT22;30476;53.468;9.826;2022-07-22T04:37:51;18.80;99.90
44166;DHT22;30476;53.468;9.826;2022-07-22T04:40:16;18.80;99.90
44166;DHT22;30476;53.468;9.826;2022-07-22T04:42:42;18.80;99.90
44166;DHT22;30476;53.468;9.826;2022-07-22T04:45:08;18.80;99.90
44166;DHT22;30476;53.468;9.826;2022-07-22T04:47:34;18.80;99.90
44166;DHT22;30476;53.468;9.826;2022-07-22T04:50:00;18.80;99.90
44166;DHT22;30476;53.468;9.826;2022-07-22T04:52:26;18.70;99.90
44166;DHT22;30476;53.468;9.826;2022-07-22T04:54:52;18.80;99.90
44166;DHT22;30476;53.468;9.826;2022-07-22T04:57:17;18.80;99.90
44166;DHT22;30476;53.468;9.826;2022-07-22T04:59:43;18.80;99.90
44166;DHT22;30476;53.468;9.826;2022-07-22T05:02:09;18.70;99.90
44166;DHT22;30476;53.468;9.826;2022-07-22T05:04:35;18.70;99.90
44166;DHT22;30476;53.468;9.826;2022-07-22T05:07:01;18.80;99.90
44166;DHT22;30476;53.468;9.826;2022-07-22T05:09:28;18.70;99.90
44166;DHT22;30476;53.468;9.826;2022-07-22T05:11:54;18.70;99.90
44166;DHT22;30476;53.468;9.826;2022-07-22T05:14:20;18.80;99.90
44166;DHT22;30476;53.468;9.826;2022-07-22T05:16:46;18.70;99.90
44166;DHT22;30476;53.468;9.826;2022-07-22T05:19:11;18.70;99.90
44166;DHT22;30476;53.468;9.826;2022-07-22T05:21:37;18.70;99.90
44166;DHT22;30476;53.468;9.826;2022-07-22T05:24:03;18.70;99.90
44166;DHT22;30476;53.468;9.826;2022-07-22T05:26:29;18.70;99.90
44166;DHT22;30476;53.468;9.826;2022-07-22T05:28:56;18.70;99.90
44166;DHT22;30476;53.468;9.826;2022-07-22T05:31:22;18.70;99.90
44166;DHT22;30476;53.468;9.826;2022-07-22T05:33:48;18.70;99.90
44166;DHT22;30476;53.468;9.826;2022-07-22T05:36:14;18.70;99.90
44166;DHT22;30476;53.468;9.826;2022-07-22T05:38:40;18.70;99.90
44166;DHT22;30476;53.468;9.826;2022-07-22T05:41:05;18.70;99.90
44166;DHT22;30476;53.468;9.826;2022-07-22T05:43:31;18.70;99.90
44166;DHT22;30476;53.468;9.826;2022-07-22T05:45:57;18.70;99.90
44166;DHT22;30476;53.468;9.826;2022-07-22T05:48:23;18.70;99.90
44166;DHT22;30476;53.468;9.826;2022-07-22T05:50:49;18.70;99.90
44166;DHT22;30476;53.468;9.826;2022-07-22T05:53:14;18.70;99.90
44166;DHT22;30476;53.468;9.826;2022-07-22T05:55:40;18.80;99.90
44166;DHT22;30476;53.468;9.826;2022-07-22T05:58:06;18.80;99.90
44166;DHT22;30476;53.468;9.826;2022-07-22T06:00:32;18.80;99.90
44166;DHT22;30476;53.468;9.826;2022-07-22T06:02:57;18.80;99.90
44166;DHT22;30476;53.468;9.826;2022-07-22T06:05:23;18.90;99.90
44166;DHT22;30476;53.468;9.826;2022-07-22T06:07:49;18.90;99.90
44166;DHT22;30476;53.468;9.826;2022-07-22T06:10:15;18.90;99.90
44166;DHT22;30476;53.468;9.826;2022-07-22T06:12:41;18.80;99.70
44166;DHT22;30476;53.468;9.826;2022-07-22T06:15:07;18.90;99.80
44166;DHT22;30476;53.468;9.826;2022-07-22T06:17:32;18.90;99.90
44166;DHT22;30476;53.468;9.826;2022-07-22T06:19:58;18.90;99.90
44166;DHT22;30476;53.468;9.826;2022-07-22T06:22:24;18.90;99.90
44166;DHT22;30476;53.468;9.826;2022-07-22T06:24:50;18.90;99.80
44166;DHT22;30476;53.468;9.826;2022-07-22T06:27:16;19.00;99.90
44166;DHT22;30476;53.468;9.826;2022-07-22T06:29:42;19.00;99.90
44166;DHT22;30476;53.468;9.826;2022-07-22T06:32:08;19.00;99.90
44166;DHT22;30476;53.468;9.826;2022-07-22T06:34:34;19.10;99.90
44166;DHT22;30476;53.468;9.826;2022-07-22T06:36:59;19.20;99.90
44166;DHT22;30476;53.468;9.826;2022-07-22T06:39:25;19.20;99.90
44166;DHT22;30476;53.468;9.826;2022-07-22T06:41:51;19.30;99.90
44166;DHT22;30476;53.468;9.826;2022-07-22T06:44:17;19.40;99.70
44166;DHT22;30476;53.468;9.826;2022-07-22T06:46:43;19.30;99.10
44166;DHT22;30476;53.468;9.826;2022-07-22T06:49:09;19.40;98.80
44166;DHT22;30476;53.468;9.826;2022-07-22T06:51:34;19.40;98.60
44166;DHT22;30476;53.468;9.826;2022-07-22T06:54:00;19.40;98.60
44166;DHT22;30476;53.468;9.826;2022-07-22T06:56:26;19.40;98.50
44166;DHT22;30476;53.468;9.826;2022-07-22T06:58:52;19.50;98.50
44166;DHT22;30476;53.468;9.826;2022-07-22T07:01:18;19.60;98.40
44166;DHT22;30476;53.468;9.826;2022-07-22T07:03:44;19.60;98.20
44166;DHT22;30476;53.468;9.826;2022-07-22T07:06:11;19.60;98.10
44166;DHT22;30476;53.468;9.826;2022-07-22T07:08:40;19.70;97.80
44166;DHT22;30476;53.468;9.826;2022-07-22T07:11:06;19.70;97.60
44166;DHT22;30476;53.468;9.826;2022-07-22T07:13:32;19.70;97.50
44166;DHT22;30476;53.468;9.826;2022-07-22T07:15:58;19.70;97.00
44166;DHT22;30476;53.468;9.826;2022-07-22T07:18:23;19.70;97.10
44166;DHT22;30476;53.468;9.826;2022-07-22T07:20:49;19.70;97.30
44166;DHT22;30476;53.468;9.826;2022-07-22T07:23:15;19.70;97.30
44166;DHT22;30476;53.468;9.826;2022-07-22T07:25:41;19.70;97.40
44166;DHT22;30476;53.468;9.826;2022-07-22T07:28:07;19.70;97.40
44166;DHT22;30476;53.468;9.826;2022-07-22T07:30:33;19.80;97.50
44166;DHT22;30476;53.468;9.826;2022-07-22T07:32:59;19.80;97.60
44166;DHT22;30476;53.468;9.826;2022-07-22T07:35:26;19.80;97.60
44166;DHT22;30476;53.468;9.826;2022-07-22T07:37:53;19.90;97.40
44166;DHT22;30476;53.468;9.826;2022-07-22T07:40:19;19.90;97.30
44166;DHT22;30476;53.468;9.826;2022-07-22T07:42:45;19.90;97.10
44166;DHT22;30476;53.468;9.826;2022-07-22T07:45:11;20.00;97.10
44166;DHT22;30476;53.468;9.826;2022-07-22T07:47:37;19.90;96.80
44166;DHT22;30476;53.468;9.826;2022-07-22T07:50:04;20.00;96.80
44166;DHT22;30476;53.468;9.826;2022-07-22T07:52:30;20.00;96.80
44166;DHT22;30476;53.468;9.826;2022-07-22T07:54:56;20.00;96.80
44166;DHT22;30476;53.468;9.826;2022-07-22T07:57:22;20.10;96.90
44166;DHT22;30476;53.468;9.826;2022-07-22T07:59:48;20.10;96.80
44166;DHT22;30476;53.468;9.826;2022-07-22T08:02:14;20.20;96.60
44166;DHT22;30476;53.468;9.826;2022-07-22T08:04:40;20.20;96.20
44166;DHT22;30476;53.468;9.826;2022-07-22T08:07:06;20.20;96.00
44166;DHT22;30476;53.468;9.826;2022-07-22T08:09:32;20.30;95.90
44166;DHT22;30476;53.468;9.826;2022-07-22T08:11:58;20.30;96.00
44166;DHT22;30476;53.468;9.826;2022-07-22T08:14:24;20.30;96.00
44166;DHT22;30476;53.468;9.826;2022-07-22T08:16:50;20.20;95.30
44166;DHT22;30476;53.468;9.826;2022-07-22T08:19:16;20.20;95.10
44166;DHT22;30476;53.468;9.826;2022-07-22T08:21:42;20.20;95.20
44166;DHT22;30476;53.468;9.826;2022-07-22T08:24:09;20.30;95.50
44166;DHT22;30476;53.468;9.826;2022-07-22T08:26:36;20.20;95.30
44166;DHT22;30476;53.468;9.826;2022-07-22T08:29:02;20.30;95.30
44166;DHT22;30476;53.468;9.826;2022-07-22T08:31:28;20.30;95.10
44166;DHT22;30476;53.468;9.826;2022-07-22T08:33:54;20.30;94.80
44166;DHT22;30476;53.468;9.826;2022-07-22T08:36:20;20.30;94.80
44166;DHT22;30476;53.468;9.826;2022-07-22T08:38:46;20.40;95.10
44166;DHT22;30476;53.468;9.826;2022-07-22T08:41:13;20.40;94.50
44166;DHT22;30476;53.468;9.826;2022-07-22T08:43:40;20.50;94.60
44166;DHT22;30476;53.468;9.826;2022-07-22T08:46:07;20.60;94.60
44166;DHT22;30476;53.468;9.826;2022-07-22T08:48:36;20.60;94.30
44166;DHT22;30476;53.468;9.826;2022-07-22T08:51:03;20.60;94.20
44166;DHT22;30476;53.468;9.826;2022-07-22T08:53:28;20.70;93.90
44166;DHT22;30476;53.468;9.826;2022-07-22T08:55:54;20.70;93.70
44166;DHT22;30476;53.468;9.826;2022-07-22T08:58:20;20.80;93.50
44166;DHT22;30476;53.468;9.826;2022-07-22T09:00:46;20.80;93.60
44166;DHT22;30476;53.468;9.826;2022-07-22T09:03:28;20.80;93.70
44166;DHT22;30476;53.468;9.826;2022-07-22T09:05:54;20.90;93.60
44166;DHT22;30476;53.468;9.826;2022-07-22T09:08:21;20.90;93.20
44166;DHT22;30476;53.468;9.826;2022-07-22T09:10:47;21.00;93.30
44166;DHT22;30476;53.468;9.826;2022-07-22T09:13:15;21.10;93.20
44166;DHT22;30476;53.468;9.826;2022-07-22T09:15:53;21.20;92.90
44166;DHT22;30476;53.468;9.826;2022-07-22T09:18:19;21.20;92.40
44166;DHT22;30476;53.468;9.826;2022-07-22T09:20:45;21.30;92.20
44166;DHT22;30476;53.468;9.826;2022-07-22T09:23:13;21.30;91.90
44166;DHT22;30476;53.468;9.826;2022-07-22T09:25:40;21.30;91.40
44166;DHT22;30476;53.468;9.826;2022-07-22T09:30:52;21.30;91.20
44166;DHT22;30476;53.468;9.826;2022-07-22T09:33:19;21.20;91.20
44166;DHT22;30476;53.468;9.826;2022-07-22T09:35:46;21.20;90.90
44166;DHT22;30476;53.468;9.826;2022-07-22T09:38:13;21.20;90.70
44166;DHT22;30476;53.468;9.826;2022-07-22T09:40:42;21.10;90.70
44166;DHT22;30476;53.468;9.826;2022-07-22T09:43:13;21.10;90.30
44166;DHT22;30476;53.468;9.826;2022-07-22T09:45:49;21.10;89.80
44166;DHT22;30476;53.468;9.826;2022-07-22T09:48:19;21.20;89.60
44166;DHT22;30476;53.468;9.826;2022-07-22T09:50:46;21.20;90.10
44166;DHT22;30476;53.468;9.826;2022-07-22T09:53:13;21.20;90.00
44166;DHT22;30476;53.468;9.826;2022-07-22T09:55:39;21.30;90.10
44166;DHT22;30476;53.468;9.826;2022-07-22T09:58:06;21.40;90.00
44166;DHT22;30476;53.468;9.826;2022-07-22T10:00:35;21.40;89.80
44166;DHT22;30476;53.468;9.826;2022-07-22T10:03:03;21.50;89.50
44166;DHT22;30476;53.468;9.826;2022-07-22T10:05:33;21.50;89.80
44166;DHT22;30476;53.468;9.826;2022-07-22T10:08:03;21.60;88.50
44166;DHT22;30476;53.468;9.826;2022-07-22T10:10:31;21.60;87.30
44166;DHT22;30476;53.468;9.826;2022-07-22T10:12:58;21.70;87.00
44166;DHT22;30476;53.468;9.826;2022-07-22T10:15:25;21.80;85.70
44166;DHT22;30476;53.468;9.826;2022-07-22T10:17:54;21.90;87.10
44166;DHT22;30476;53.468;9.826;2022-07-22T10:20:24;21.90;85.80
44166;DHT22;30476;53.468;9.826;2022-07-22T10:22:55;21.90;85.40
44166;DHT22;30476;53.468;9.826;2022-07-22T10:25:24;22.00;85.40
44166;DHT22;30476;53.468;9.826;2022-07-22T10:28:04;22.00;85.30
44166;DHT22;30476;53.468;9.826;2022-07-22T10:30:35;22.00;85.20
44166;DHT22;30476;53.468;9.826;2022-07-22T10:33:06;22.00;85.30
44166;DHT22;30476;53.468;9.826;2022-07-22T10:35:35;21.90;85.10
44166;DHT22;30476;53.468;9.826;2022-07-22T10:38:04;21.90;85.00
44166;DHT22;30476;53.468;9.826;2022-07-22T10:40:44;21.90;85.00
44166;DHT22;30476;53.468;9.826;2022-07-22T10:43:13;21.90;85.40
44166;DHT22;30476;53.468;9.826;2022-07-22T10:45:48;21.80;85.70
44166;DHT22;30476;53.468;9.826;2022-07-22T10:48:19;21.90;85.90
44166;DHT22;30476;53.468;9.826;2022-07-22T10:50:51;21.90;85.80
44166;DHT22;30476;53.468;9.826;2022-07-22T10:53:21;21.90;85.40
44166;DHT22;30476;53.468;9.826;2022-07-22T10:56:00;21.90;84.70
44166;DHT22;30476;53.468;9.826;2022-07-22T11:01:06;22.00;83.80
44166;DHT22;30476;53.468;9.826;2022-07-22T11:03:33;22.00;83.10
44166;DHT22;30476;53.468;9.826;2022-07-22T11:06:25;22.10;82.00
44166;DHT22;30476;53.468;9.826;2022-07-22T11:08:53;22.10;81.70
44166;DHT22;30476;53.468;9.826;2022-07-22T11:11:40;22.10;81.80
44166;DHT22;30476;53.468;9.826;2022-07-22T11:14:13;22.20;82.00
44166;DHT22;30476;53.468;9.826;2022-07-22T11:16:39;22.30;82.10
44166;DHT22;30476;53.468;9.826;2022-07-22T11:19:05;22.40;82.30
44166;DHT22;30476;53.468;9.826;2022-07-22T11:21:33;22.50;80.90
44166;DHT22;30476;53.468;9.826;2022-07-22T11:24:02;22.60;80.60
44166;DHT22;30476;53.468;9.826;2022-07-22T11:26:45;22.60;79.80
44166;DHT22;30476;53.468;9.826;2022-07-22T11:29:25;22.70;79.60
44166;DHT22;30476;53.468;9.826;2022-07-22T11:31:51;22.80;79.80
44166;DHT22;30476;53.468;9.826;2022-07-22T11:34:18;22.80;79.70
44166;DHT22;30476;53.468;9.826;2022-07-22T11:36:46;22.80;79.90
44166;DHT22;30476;53.468;9.826;2022-07-22T11:39:14;22.80;79.60
44166;DHT22;30476;53.468;9.826;2022-07-22T11:41:40;22.80;78.90
44166;DHT22;30476;53.468;9.826;2022-07-22T11:44:07;22.70;78.80
44166;DHT22;30476;53.468;9.826;2022-07-22T11:46:38;22.70;78.60
44166;DHT22;30476;53.468;9.826;2022-07-22T11:49:06;22.70;79.00
44166;DHT22;30476;53.468;9.826;2022-07-22T11:51:33;22.60;79.50
44166;DHT22;30476;53.468;9.826;2022-07-22T11:53:59;22.60;80.60
44166;DHT22;30476;53.468;9.826;2022-07-22T11:56:26;22.60;81.40
44166;DHT22;30476;53.468;9.826;2022-07-22T11:58:52;22.60;81.30
44166;DHT22;30476;53.468;9.826;2022-07-22T12:01:21;22.60;82.00
44166;DHT22;30476;53.468;9.826;2022-07-22T12:03:54;22.60;81.60
44166;DHT22;30476;53.468;9.826;2022-07-22T12:06:21;22.50;81.70
44166;DHT22;30476;53.468;9.826;2022-07-22T12:08:51;22.60;81.80
44166;DHT22;30476;53.468;9.826;2022-07-22T12:11:18;22.50;81.70
44166;DHT22;30476;53.468;9.826;2022-07-22T12:13:47;22.60;82.30
44166;DHT22;30476;53.468;9.826;2022-07-22T12:18:57;22.60;81.70
44166;DHT22;30476;53.468;9.826;2022-07-22T12:21:25;22.60;82.20
44166;DHT22;30476;53.468;9.826;2022-07-22T12:23:56;22.70;82.40
44166;DHT22;30476;53.468;9.826;2022-07-22T12:29:26;22.70;81.90
44166;DHT22;30476;53.468;9.826;2022-07-22T12:31:57;22.60;81.30
44166;DHT22;30476;53.468;9.826;2022-07-22T12:34:38;22.60;81.30
44166;DHT22;30476;53.468;9.826;2022-07-22T12:37:43;22.60;81.90
44166;DHT22;30476;53.468;9.826;2022-07-22T12:40:11;22.50;81.80
44166;DHT22;30476;53.468;9.826;2022-07-22T12:42:42;22.50;82.10
44166;DHT22;30476;53.468;9.826;2022-07-22T12:45:12;22.50;81.70
44166;DHT22;30476;53.468;9.826;2022-07-22T12:50:32;22.60;81.90
44166;DHT22;30476;53.468;9.826;2022-07-22T12:53:00;22.60;82.10
44166;DHT22;30476;53.468;9.826;2022-07-22T12:55:28;22.70;82.20
44166;DHT22;30476;53.468;9.826;2022-07-22T12:57:55;22.70;81.40
44166;DHT22;30476;53.468;9.826;2022-07-22T13:00:32;22.70;81.40
44166;DHT22;30476;53.468;9.826;2022-07-22T13:02:58;22.80;81.70
44166;DHT22;30476;53.468;9.826;2022-07-22T13:05:25;22.90;81.20
44166;DHT22;30476;53.468;9.826;2022-07-22T13:07:52;22.90;81.50
44166;DHT22;30476;53.468;9.826;2022-07-22T13:10:22;22.90;80.70
44166;DHT22;30476;53.468;9.826;2022-07-22T13:12:49;23.00;81.20
44166;DHT22;30476;53.468;9.826;2022-07-22T13:15:15;23.10;79.80
44166;DHT22;30476;53.468;9.826;2022-07-22T13:17:41;23.00;79.30
44166;DHT22;30476;53.468;9.826;2022-07-22T13:20:08;23.10;79.50
44166;DHT22;30476;53.468;9.826;2022-07-22T13:22:35;23.00;79.00
44166;DHT22;30476;53.468;9.826;2022-07-22T13:25:02;23.10;79.60
44166;DHT22;30476;53.468;9.826;2022-07-22T13:27:29;23.00;79.00
44166;DHT22;30476;53.468;9.826;2022-07-22T13:29:54;23.10;79.10
44166;DHT22;30476;53.468;9.826;2022-07-22T13:32:20;23.10;79.60
44166;DHT22;30476;53.468;9.826;2022-07-22T13:34:46;23.10;79.40
44166;DHT22;30476;53.468;9.826;2022-07-22T13:37:12;23.10;79.10
44166;DHT22;30476;53.468;9.826;2022-07-22T13:39:38;23.10;78.40
44166;DHT22;30476;53.468;9.826;2022-07-22T13:42:06;23.10;77.90
44166;DHT22;30476;53.468;9.826;2022-07-22T13:44:32;23.20;77.60
44166;DHT22;30476;53.468;9.826;2022-07-22T13:46:58;23.20;78.00
44166;DHT22;30476;53.468;9.826;2022-07-22T13:49:24;23.20;78.50
44166;DHT22;30476;53.468;9.826;2022-07-22T13:51:50;23.20;78.50
44166;DHT22;30476;53.468;9.826;2022-07-22T13:54:17;23.20;78.70
44166;DHT22;30476;53.468;9.826;2022-07-22T13:56:44;23.20;79.00
44166;DHT22;30476;53.468;9.826;2022-07-22T13:59:13;23.10;78.80
44166;DHT22;30476;53.468;9.826;2022-07-22T14:01:39;23.00;78.90
44166;DHT22;30476;53.468;9.826;2022-07-22T14:04:05;22.90;79.30
44166;DHT22;30476;53.468;9.826;2022-07-22T14:06:32;22.90;79.50
44166;DHT22;30476;53.468;9.826;2022-07-22T14:08:59;22.80;79.20
44166;DHT22;30476;53.468;9.826;2022-07-22T14:11:25;22.80;79.40
44166;DHT22;30476;53.468;9.826;2022-07-22T14:13:51;22.70;79.40
44166;DHT22;30476;53.468;9.826;2022-07-22T14:16:16;22.70;79.20
44166;DHT22;30476;53.468;9.826;2022-07-22T14:19:09;22.60;79.60
44166;DHT22;30476;53.468;9.826;2022-07-22T14:21:37;22.60;79.30
44166;DHT22;30476;53.468;9.826;2022-07-22T14:24:04;22.60;78.00
44166;DHT22;30476;53.468;9.826;2022-07-22T14:26:30;22.60;79.30
44166;DHT22;30476;53.468;9.826;2022-07-22T14:28:56;22.60;79.50
44166;DHT22;30476;53.468;9.826;2022-07-22T14:31:22;22.60;79.10
44166;DHT22;30476;53.468;9.826;2022-07-22T14:33:49;22.60;78.70
44166;DHT22;30476;53.468;9.826;2022-07-22T14:36:14;22.70;79.00
44166;DHT22;30476;53.468;9.826;2022-07-22T14:38:40;22.70;78.70
44166;DHT22;30476;53.468;9.826;2022-07-22T14:41:06;22.70;78.40
44166;DHT22;30476;53.468;9.826;2022-07-22T14:43:36;22.80;78.00
44166;DHT22;30476;53.468;9.826;2022-07-22T14:46:03;22.80;78.20
44166;DHT22;30476;53.468;9.826;2022-07-22T14:48:39;22.80;78.50
44166;DHT22;30476;53.468;9.826;2022-07-22T14:51:07;22.90;78.00
44166;DHT22;30476;53.468;9.826;2022-07-22T14:53:33;22.90;78.40
44166;DHT22;30476;53.468;9.826;2022-07-22T14:55:59;22.90;78.70
44166;DHT22;30476;53.468;9.826;2022-07-22T14:58:24;22.90;79.00
44166;DHT22;30476;53.468;9.826;2022-07-22T15:00:51;22.90;78.80
44166;DHT22;30476;53.468;9.826;2022-07-22T15:03:17;22.90;78.20
44166;DHT22;30476;53.468;9.826;2022-07-22T15:05:43;22.90;77.40
44166;DHT22;30476;53.468;9.826;2022-07-22T15:08:09;22.90;77.70
44166;DHT22;30476;53.468;9.826;2022-07-22T15:10:36;22.90;78.10
44166;DHT22;30476;53.468;9.826;2022-07-22T15:13:02;22.90;77.90
44166;DHT22;30476;53.468;9.826;2022-07-22T15:15:28;22.80;76.60
44166;DHT22;30476;53.468;9.826;2022-07-22T15:17:53;22.80;76.50
44166;DHT22;30476;53.468;9.826;2022-07-22T15:20:19;22.80;77.10
44166;DHT22;30476;53.468;9.826;2022-07-22T15:22:45;22.80;77.50
44166;DHT22;30476;53.468;9.826;2022-07-22T15:25:11;22.80;76.90
44166;DHT22;30476;53.468;9.826;2022-07-22T15:27:37;22.80;77.50
44166;DHT22;30476;53.468;9.826;2022-07-22T15:30:11;22.80;77.20
44166;DHT22;30476;53.468;9.826;2022-07-22T15:32:37;22.80;77.30
44166;DHT22;30476;53.468;9.826;2022-07-22T15:35:03;22.70;77.00
44166;DHT22;30476;53.468;9.826;2022-07-22T15:37:31;22.70;76.30
44166;DHT22;30476;53.468;9.826;2022-07-22T15:39:56;22.70;76.90
44166;DHT22;30476;53.468;9.826;2022-07-22T15:42:22;22.60;77.70
44166;DHT22;30476;53.468;9.826;2022-07-22T15:44:48;22.60;77.70